createdAt,value
2019-03-26T00:01:45.681Z,39.31
2019-03-26T00:06:49.253Z,39.44
2019-03-26T00:11:52.808Z,38.49
2019-03-26T00:16:56.390Z,38.72
2019-03-26T00:21:59.982Z,40.56
2019-03-26T00:27:03.514Z,39.64
2019-03-26T00:32:07.096Z,40.00
2019-03-26T00:37:10.676Z,37.35
2019-03-26T00:42:14.229Z,39.38
2019-03-26T00:47:17.804Z,38.67
2019-03-26T00:52:21.341Z,36.54
2019-03-26T00:57:24.886Z,35.07
2019-03-26T01:02:28.505Z,33.99
2019-03-26T01:07:32.087Z,33.07
2019-03-26T01:12:35.742Z,32.44
2019-03-26T01:17:39.306Z,32.41
2019-03-26T01:22:42.880Z,32.74
2019-03-26T01:27:46.427Z,33.14
2019-03-26T01:32:49.997Z,33.69
2019-03-26T01:37:53.563Z,33.92
2019-03-26T01:42:57.371Z,34.22
2019-03-26T01:48:00.894Z,34.85
2019-03-26T01:53:05.288Z,35.46
2019-03-26T01:58:08.798Z,36.31
2019-03-26T02:03:12.376Z,36.77
2019-03-26T02:08:15.901Z,36.79
2019-03-26T02:13:19.491Z,38.17
2019-03-26T02:18:23.019Z,36.54
2019-03-26T02:23:26.594Z,37.79
2019-03-26T02:28:30.154Z,35.66
2019-03-26T02:33:33.754Z,34.77
2019-03-26T02:38:37.307Z,33.97
2019-03-26T02:43:40.878Z,33.54
2019-03-26T02:48:44.482Z,33.57
2019-03-26T02:53:48.012Z,33.20
2019-03-26T02:58:51.611Z,33.67
2019-03-26T03:03:55.160Z,33.84
2019-03-26T03:08:58.738Z,33.96
2019-03-26T03:14:02.270Z,33.96
2019-03-26T03:19:05.836Z,34.52
2019-03-26T03:24:09.367Z,34.94
2019-03-26T03:29:12.974Z,35.22
2019-03-26T03:34:16.725Z,36.09
2019-03-26T03:39:20.471Z,36.63
2019-03-26T03:44:24.030Z,36.48
2019-03-26T03:49:27.600Z,35.04
2019-03-26T03:54:31.137Z,34.10
2019-03-26T03:59:34.697Z,33.52
2019-03-26T04:04:38.258Z,32.64
2019-03-26T04:09:41.853Z,31.77
2019-03-26T04:14:45.404Z,32.04
2019-03-26T04:19:49.107Z,32.44
2019-03-26T04:24:52.608Z,32.41
2019-03-26T04:29:56.190Z,32.79
2019-03-26T04:34:59.735Z,33.08
2019-03-26T04:40:03.317Z,32.95
2019-03-26T04:45:06.844Z,33.32
2019-03-26T04:50:10.453Z,33.77
2019-03-26T04:55:13.980Z,36.81
2019-03-26T05:00:17.549Z,37.18
2019-03-26T05:05:21.082Z,37.57
2019-03-26T05:10:24.680Z,36.31
2019-03-26T05:15:28.226Z,37.37
2019-03-26T05:20:31.811Z,38.06
2019-03-26T05:25:35.376Z,38.06
2019-03-26T05:30:38.932Z,37.93
2019-03-26T05:35:42.498Z,37.25
2019-03-26T05:40:46.050Z,35.83
2019-03-26T05:45:49.672Z,34.85
2019-03-26T05:50:53.225Z,33.96
2019-03-26T05:55:56.816Z,32.84
2019-03-26T06:01:00.404Z,32.63
2019-03-26T06:06:04.924Z,32.20
2019-03-26T06:11:08.510Z,32.19
2019-03-26T06:16:12.085Z,32.08
2019-03-26T06:21:15.644Z,32.22
2019-03-26T06:26:19.272Z,32.63
2019-03-26T06:31:22.816Z,32.81
2019-03-26T06:36:26.358Z,32.97
2019-03-26T06:41:29.935Z,32.82
2019-03-26T06:46:33.523Z,32.65
2019-03-26T06:51:37.048Z,33.27
2019-03-26T06:56:40.650Z,34.11
2019-03-26T07:01:44.186Z,34.26
2019-03-26T07:06:47.789Z,33.55
2019-03-26T07:11:51.318Z,33.17
2019-03-26T07:16:54.863Z,33.84
2019-03-26T07:21:58.435Z,33.50
2019-03-26T07:27:01.977Z,33.40
2019-03-26T07:32:05.580Z,33.30
2019-03-26T07:37:09.158Z,32.37
2019-03-26T07:42:12.700Z,32.50
2019-03-26T07:47:16.284Z,31.57
2019-03-26T07:52:19.856Z,31.85
2019-03-26T07:57:23.459Z,30.46
2019-03-26T08:02:27.014Z,30.97
2019-03-26T08:07:30.580Z,30.75
2019-03-26T08:12:35.174Z,30.60
2019-03-26T08:17:38.737Z,30.63
2019-03-26T08:22:42.289Z,30.58
2019-03-26T08:27:45.816Z,30.76
2019-03-26T08:32:49.396Z,30.58
2019-03-26T08:37:52.953Z,30.52
2019-03-26T08:42:56.557Z,30.74
2019-03-26T08:48:00.116Z,31.20
2019-03-26T08:53:03.721Z,31.15
2019-03-26T08:58:07.246Z,31.29
2019-03-26T09:03:10.818Z,30.85
2019-03-26T09:08:24.812Z,31.20
2019-03-26T09:13:19.676Z,31.76
2019-03-26T09:18:23.209Z,31.49
2019-03-26T09:23:26.794Z,32.25
2019-03-26T09:28:30.351Z,31.99
2019-03-26T09:33:33.930Z,32.79
2019-03-26T09:38:39.255Z,32.07
2019-03-26T09:43:42.804Z,32.51
2019-03-26T09:48:46.359Z,32.52
2019-03-26T09:53:49.895Z,32.11
2019-03-26T09:58:53.505Z,32.15
2019-03-26T10:03:57.033Z,32.51
2019-03-26T10:09:00.606Z,32.90
2019-03-26T10:14:05.214Z,32.60
2019-03-26T10:19:08.762Z,32.11
2019-03-26T10:24:12.343Z,31.87
2019-03-26T10:29:29.565Z,31.14
2019-03-26T10:34:21.228Z,31.05
2019-03-26T10:39:24.753Z,31.12
2019-03-26T10:44:28.341Z,31.10
2019-03-26T10:49:31.850Z,30.80
2019-03-26T10:54:35.411Z,31.59
2019-03-26T10:59:38.934Z,31.61
2019-03-26T11:04:42.500Z,31.87
2019-03-26T11:09:46.098Z,32.03
2019-03-26T11:14:49.628Z,31.66
2019-03-26T11:19:53.233Z,32.00
2019-03-26T11:24:56.758Z,32.79
2019-03-26T11:30:00.406Z,32.92
2019-03-26T11:35:06.032Z,32.77
2019-03-26T11:40:09.561Z,32.88
2019-03-26T11:45:13.129Z,33.21
2019-03-26T11:50:16.682Z,33.68
2019-03-26T11:55:21.829Z,32.87
2019-03-26T12:00:27.289Z,32.81
2019-03-26T12:05:30.849Z,32.42
2019-03-26T12:10:34.444Z,31.83
2019-03-26T12:15:37.997Z,31.20
2019-03-26T12:20:41.570Z,30.58
2019-03-26T12:25:45.117Z,30.14
2019-03-26T12:30:48.691Z,30.15
2019-03-26T12:35:52.287Z,30.39
2019-03-26T12:40:55.817Z,30.85
2019-03-26T12:46:01.821Z,30.96
2019-03-26T12:51:04.822Z,31.35
2019-03-26T12:56:08.375Z,31.06
2019-03-26T13:01:11.954Z,31.76
2019-03-26T13:06:15.570Z,32.27
2019-03-26T13:11:19.133Z,32.74
2019-03-26T13:16:22.718Z,31.45
2019-03-26T13:21:26.286Z,33.62
2019-03-26T13:26:29.818Z,33.28
2019-03-26T13:31:33.370Z,33.38
2019-03-26T13:36:36.976Z,32.04
2019-03-26T13:41:40.500Z,33.56
2019-03-26T13:46:44.075Z,34.11
2019-03-26T13:51:47.655Z,33.54
2019-03-26T13:56:51.194Z,33.85
2019-03-26T14:01:54.747Z,33.03
2019-03-26T14:06:58.312Z,32.23
2019-03-26T14:12:01.882Z,31.40
2019-03-26T14:17:05.829Z,31.00
2019-03-26T14:27:12.155Z,30.75
2019-03-26T14:32:15.714Z,31.20
2019-03-26T14:37:19.295Z,31.01
2019-03-26T14:42:22.879Z,32.28
2019-03-26T14:47:26.463Z,32.48
2019-03-26T14:52:30.017Z,32.60
2019-03-26T14:57:33.605Z,33.25
2019-03-26T15:02:37.228Z,34.52
2019-03-26T15:07:40.902Z,34.30
2019-03-26T15:12:44.459Z,34.75
2019-03-26T15:17:48.079Z,34.07
2019-03-26T15:22:51.697Z,35.45
2019-03-26T15:27:55.255Z,35.42
2019-03-26T15:32:58.941Z,35.73
2019-03-26T15:38:02.557Z,35.25
2019-03-26T15:43:06.097Z,34.75
2019-03-26T15:48:09.660Z,33.65
2019-03-26T15:53:13.746Z,33.25
2019-03-26T15:58:17.347Z,32.39
2019-03-26T16:03:22.370Z,31.73
2019-03-26T16:08:26.422Z,31.58
2019-03-26T16:13:30.040Z,31.77
2019-03-26T16:18:33.831Z,32.53
2019-03-26T16:23:38.065Z,32.80
2019-03-26T16:28:41.952Z,32.99
2019-03-26T16:33:46.035Z,33.52
2019-03-26T16:38:50.341Z,33.52
2019-03-26T16:43:54.170Z,33.68
2019-03-26T16:48:58.153Z,34.16
2019-03-26T16:54:02.160Z,34.50
2019-03-26T16:59:05.971Z,33.95
2019-03-26T17:04:10.035Z,34.76
2019-03-26T17:09:14.321Z,34.58
2019-03-26T17:14:18.483Z,34.54
2019-03-26T17:19:22.281Z,33.84
2019-03-26T17:24:26.542Z,32.46
2019-03-26T17:29:32.634Z,31.82
2019-03-26T17:34:38.572Z,31.28
2019-03-26T17:39:42.720Z,30.68
2019-03-26T17:44:46.362Z,31.11
2019-03-26T17:49:50.584Z,31.35
2019-03-26T17:54:55.029Z,31.70
2019-03-26T17:59:59.464Z,32.12
2019-03-26T18:05:04.144Z,32.60
2019-03-26T18:10:08.196Z,33.13
2019-03-26T18:15:11.961Z,33.53
2019-03-26T18:20:15.517Z,33.82
2019-03-26T18:25:19.202Z,34.65
2019-03-26T18:30:25.237Z,34.90
2019-03-26T18:35:29.105Z,34.90
2019-03-26T18:40:32.669Z,36.43
2019-03-26T18:45:41.472Z,36.45
2019-03-26T18:50:45.081Z,36.04
2019-03-26T18:55:48.703Z,34.65
2019-03-26T19:00:52.258Z,33.03
2019-03-26T19:05:55.835Z,32.71
2019-03-26T19:11:00.222Z,32.80
2019-03-26T19:16:03.845Z,33.21
2019-03-26T19:21:07.418Z,33.34
2019-03-26T19:26:11.039Z,33.68
2019-03-26T19:31:14.536Z,34.08
2019-03-26T19:36:18.130Z,34.75
2019-03-26T19:41:21.796Z,35.36
2019-03-26T19:46:25.410Z,35.44
2019-03-26T19:51:28.963Z,36.06
2019-03-26T19:56:32.525Z,36.53
2019-03-26T20:01:36.108Z,36.87
2019-03-26T20:06:39.656Z,36.29
2019-03-26T20:11:43.207Z,36.85
2019-03-26T20:16:46.789Z,35.78
2019-03-26T20:21:50.404Z,34.45
2019-03-26T20:26:54.058Z,33.34
2019-03-26T20:31:57.779Z,32.91
2019-03-26T20:37:01.393Z,32.16
2019-03-26T20:42:04.932Z,32.24
2019-03-26T20:47:08.638Z,31.50
2019-03-26T20:52:12.168Z,33.02
2019-03-26T20:57:15.779Z,33.02
2019-03-26T21:02:19.351Z,34.97
2019-03-26T21:07:22.943Z,35.80
2019-03-26T21:12:26.485Z,35.95
2019-03-26T21:17:30.174Z,36.14
2019-03-26T21:22:35.730Z,37.12
2019-03-26T21:27:40.138Z,37.39
2019-03-26T21:32:43.777Z,37.90
2019-03-26T21:37:47.370Z,37.68
2019-03-26T21:42:51.122Z,37.12
2019-03-26T21:47:56.017Z,37.62
2019-03-26T21:52:59.630Z,35.11
2019-03-26T21:58:03.892Z,34.09
2019-03-26T22:03:08.923Z,32.94
2019-03-26T22:08:12.499Z,32.67
2019-03-26T22:13:16.078Z,32.61
2019-03-26T22:18:19.612Z,32.59
2019-03-26T22:23:23.183Z,32.69
2019-03-26T22:28:26.789Z,32.85
2019-03-26T22:33:30.335Z,33.22
2019-03-26T22:38:34.272Z,33.33
2019-03-26T22:43:37.803Z,33.69
2019-03-26T22:48:41.380Z,34.36
2019-03-26T22:53:44.926Z,36.44
2019-03-26T22:58:48.505Z,37.36
2019-03-26T23:03:52.185Z,37.88
2019-03-26T23:08:55.942Z,37.97
2019-03-26T23:13:59.621Z,38.81
2019-03-26T23:19:03.168Z,36.40
2019-03-26T23:24:07.326Z,37.78
2019-03-26T23:29:11.288Z,37.17
2019-03-26T23:34:15.685Z,35.16
2019-03-26T23:39:19.331Z,33.95
2019-03-26T23:44:26.000Z,32.85
2019-03-26T23:49:29.104Z,32.41
2019-03-26T23:54:32.700Z,31.93
2019-03-26T23:59:36.236Z,31.33
